Time;durP1;ratioP1;P1;durP2;ratioP2;P2;SDS_P1;SDS_P2;PMS_P1;PMS_P2;Temp;Humidity;BMP_temperature;BMP_pressure;BME280_temperature;BME280_humidity;BME280_pressure;Samples;Min_cycle;Max_cycle;Signal;HPM_P1;HPM_P2
2022/03/16 00:01:11;;;;;;;16.77;13.73;;;;;;;5.95;84.70;97988.31;6227400;28;20603;-70
2022/03/16 00:04:13;;;;;;;18.17;14.50;;;;;;;5.98;85.32;98000.41;6230899;28;20239;-70
2022/03/16 00:07:16;;;;;;;19.50;15.60;;;;;;;5.99;85.19;97987.19;6230918;28;20273;-70
2022/03/16 00:10:18;;;;;;;20.93;13.37;;;;;;;6.03;85.71;98004.44;6230125;28;20238;-70
2022/03/16 00:13:20;;;;;;;19.13;11.87;;;;;;;6.06;85.33;97992.94;6230032;28;20229;-70
2022/03/16 00:16:22;;;;;;;15.83;11.83;;;;;;;6.17;85.58;97985.31;6229038;28;20244;-71
2022/03/16 00:19:24;;;;;;;17.00;11.07;;;;;;;6.23;86.31;97972.69;6231137;28;20237;-71
2022/03/16 00:22:26;;;;;;;17.37;7.33;;;;;;;6.60;87.28;97958.25;6229925;28;20235;-71
2022/03/16 00:25:28;;;;;;;19.53;9.13;;;;;;;6.81;87.07;97956.09;6230521;28;20648;-71
2022/03/16 00:28:30;;;;;;;12.37;6.03;;;;;;;7.08;87.03;97963.25;6230965;28;20238;-70
2022/03/16 00:31:33;;;;;;;13.23;7.63;;;;;;;7.23;86.94;97951.78;6228818;28;20717;-71
2022/03/16 00:34:35;;;;;;;10.00;6.33;;;;;;;7.24;86.89;97942.97;6228828;28;20251;-70
2022/03/16 00:37:37;;;;;;;16.93;7.83;;;;;;;7.12;86.74;97939.31;6230563;28;20709;-71
2022/03/16 00:40:39;;;;;;;18.17;8.33;;;;;;;7.18;86.77;97930.25;6230790;28;20239;-70
2022/03/16 00:43:42;;;;;;;12.47;7.77;;;;;;;7.24;86.69;97933.31;6212857;28;20249;-70
2022/03/16 00:46:46;;;;;;;12.23;8.27;;;;;;;7.15;86.82;97926.03;6229880;28;20310;-71
2022/03/16 00:49:48;;;;;;;15.00;6.17;;;;;;;7.11;86.94;97921.03;6229006;28;20319;-70
2022/03/16 00:52:50;;;;;;;11.17;5.60;;;;;;;7.30;86.76;97917.16;6228443;28;20241;-71
2022/03/16 00:55:52;;;;;;;5.37;3.40;;;;;;;7.69;86.33;97905.88;6229490;28;20373;-71
2022/03/16 00:58:56;;;;;;;10.70;3.93;;;;;;;7.88;85.26;97913.44;6229735;28;20236;-72
2022/03/16 01:01:58;;;;;;;9.27;3.57;;;;;;;8.09;84.39;97914.63;6212409;28;20235;-70
2022/03/16 01:05:00;;;;;;;7.70;3.47;;;;;;;8.13;83.89;97917.91;6228430;28;20278;-71
2022/03/16 01:08:02;;;;;;;7.20;3.10;;;;;;;8.19;84.18;97911.38;6229121;28;20624;-71
2022/03/16 01:11:04;;;;;;;6.80;2.60;;;;;;;8.27;84.14;97919.63;6227852;28;20235;-71
2022/03/16 01:14:06;;;;;;;6.63;2.67;;;;;;;8.30;83.24;97899.19;6226888;28;20252;-71
2022/03/16 01:17:08;;;;;;;6.73;2.73;;;;;;;8.33;83.18;97891.13;6211962;28;20238;-72
2022/03/16 01:20:11;;;;;;;6.87;2.60;;;;;;;8.44;83.41;97896.53;6228046;28;20600;-71
2022/03/16 01:23:13;;;;;;;6.27;3.63;;;;;;;8.60;81.85;97892.81;6229338;28;20225;-70
2022/03/16 01:26:16;;;;;;;6.67;2.93;;;;;;;8.75;81.12;97894.41;6226539;28;20230;-71
2022/03/16 01:29:17;;;;;;;9.27;3.23;;;;;;;8.78;80.62;97881.06;6211398;28;20230;-71
2022/03/16 01:32:23;;;;;;;10.67;3.37;;;;;;;8.77;81.17;97887.25;6230365;28;20238;-71
2022/03/16 01:35:26;;;;;;;8.33;3.50;;;;;;;8.75;81.75;97878.63;6229717;28;20226;-71
2022/03/16 01:38:28;;;;;;;7.07;4.33;;;;;;;8.72;81.44;97868.31;6229357;28;20318;-71
2022/03/16 01:41:31;;;;;;;8.17;4.47;;;;;;;8.66;82.71;97858.22;6227386;28;20231;-71
2022/03/16 01:44:54;;;;;;;8.10;3.97;;;;;;;8.64;82.46;97844.31;6228809;28;20238;-71
2022/03/16 01:47:56;;;;;;;7.27;4.40;;;;;;;8.63;82.51;97848.75;6219251;28;20240;-71
2022/03/16 01:50:58;;;;;;;6.70;4.57;;;;;;;8.62;81.84;97852.31;6228665;28;20917;-71
2022/03/16 01:54:01;;;;;;;4.73;3.80;;;;;;;8.62;81.64;97843.56;6227036;28;20311;-71
2022/03/16 01:57:04;;;;;;;5.40;4.00;;;;;;;8.57;81.36;97849.19;6228164;28;20589;-71
2022/03/16 02:00:07;;;;;;;9.60;4.47;;;;;;;8.52;81.38;97836.34;6226751;28;20206;-70
2022/03/16 02:03:18;;;;;;;10.37;5.27;;;;;;;8.47;81.42;97842.88;6229383;28;20243;-70
2022/03/16 02:06:20;;;;;;;6.73;4.60;;;;;;;8.52;81.44;97843.38;6227353;28;20318;-70
2022/03/16 02:09:23;;;;;;;9.57;5.37;;;;;;;8.61;80.98;97849.78;6226540;28;20416;-70
2022/03/16 02:12:25;;;;;;;6.23;5.23;;;;;;;8.61;79.40;97853.25;6229302;28;20787;-69
2022/03/16 02:15:28;;;;;;;5.87;4.83;;;;;;;8.60;79.96;97848.94;6228164;28;20226;-70
2022/03/16 02:18:30;;;;;;;6.53;5.10;;;;;;;8.58;79.63;97840.34;6226978;28;20219;-70
2022/03/16 02:21:37;;;;;;;6.20;4.97;;;;;;;8.52;79.02;97849.47;6227472;28;20234;-70
2022/03/16 02:24:39;;;;;;;8.83;5.30;;;;;;;8.56;79.29;97836.13;6228158;28;20612;-70
2022/03/16 02:27:40;;;;;;;5.03;4.23;;;;;;;8.56;78.83;97841.38;6226965;28;20224;-70
2022/03/16 02:30:43;;;;;;;8.60;5.03;;;;;;;8.51;79.28;97839.91;6228756;28;20222;-70
2022/03/16 02:33:45;;;;;;;7.77;5.43;;;;;;;8.50;79.55;97832.13;6227453;28;20630;-70
2022/03/16 02:36:49;;;;;;;7.73;5.03;;;;;;;8.50;78.84;97832.97;6227339;28;20222;-70
2022/03/16 02:39:51;;;;;;;7.77;4.83;;;;;;;8.46;78.30;97830.66;6228024;28;20216;-70
2022/03/16 02:42:53;;;;;;;8.07;5.00;;;;;;;8.46;78.00;97833.28;6226500;28;20310;-70
2022/03/16 02:45:56;;;;;;;7.87;5.80;;;;;;;8.51;77.26;97836.44;6226281;28;20235;-70
2022/03/16 02:48:58;;;;;;;6.43;5.80;;;;;;;8.51;76.85;97844.31;6227540;28;20249;-70
2022/03/16 02:52:06;;;;;;;6.87;5.50;;;;;;;8.43;77.34;97836.13;6225839;28;20254;-70
2022/03/16 02:55:08;;;;;;;7.73;5.73;;;;;;;8.34;77.48;97842.03;6227996;28;20241;-70
2022/03/16 02:58:11;;;;;;;9.17;6.20;;;;;;;8.36;76.21;97832.25;6227178;28;20229;-70
2022/03/16 03:01:13;;;;;;;8.00;5.90;;;;;;;8.33;76.31;97849.06;6227067;28;20231;-70
2022/03/16 03:04:15;;;;;;;7.53;5.60;;;;;;;8.31;77.40;97853.59;6225922;28;20232;-69
2022/03/16 03:07:18;;;;;;;7.80;6.40;;;;;;;8.28;77.12;97845.91;6226857;28;20325;-70
2022/03/16 03:10:20;;;;;;;6.83;5.93;;;;;;;8.24;76.80;97854.94;6209741;28;20278;-70
2022/03/16 03:13:23;;;;;;;7.90;6.30;;;;;;;8.21;76.45;97855.13;6227998;28;20257;-70
2022/03/16 03:16:25;;;;;;;6.63;5.67;;;;;;;8.10;76.48;97852.38;6226926;28;20234;-70
2022/03/16 03:19:27;;;;;;;7.33;6.60;;;;;;;8.01;76.85;97856.47;6227128;28;20230;-70
2022/03/16 03:22:29;;;;;;;7.70;6.80;;;;;;;7.96;77.17;97865.63;6225935;28;20245;-70
2022/03/16 03:25:31;;;;;;;8.87;7.53;;;;;;;7.92;77.24;97859.72;6226774;28;20707;-69
2022/03/16 03:28:33;;;;;;;8.40;6.77;;;;;;;7.96;76.69;97863.84;6225148;28;20243;-70
2022/03/16 03:31:35;;;;;;;10.43;8.00;;;;;;;7.86;76.83;97864.56;6208860;28;20238;-71
2022/03/16 03:34:39;;;;;;;8.77;7.80;;;;;;;7.77;77.40;97872.09;6225500;28;20229;-71
2022/03/16 03:37:41;;;;;;;9.43;8.23;;;;;;;7.87;76.74;97871.50;6225989;28;20625;-70
2022/03/16 03:40:43;;;;;;;9.10;8.20;;;;;;;7.89;77.30;97875.69;6226818;28;20215;-71
2022/03/16 03:43:45;;;;;;;9.00;8.00;;;;;;;7.92;76.64;97870.22;6227154;28;20413;-70
2022/03/16 03:46:47;;;;;;;11.93;8.97;;;;;;;7.90;77.26;97868.63;6226142;28;20258;-71
2022/03/16 03:49:49;;;;;;;13.33;9.23;;;;;;;7.99;75.88;97871.50;6226013;28;20239;-70
2022/03/16 03:52:51;;;;;;;10.00;8.37;;;;;;;8.10;74.86;97883.91;6225572;28;20237;-71
2022/03/16 03:55:53;;;;;;;9.73;8.53;;;;;;;8.20;74.59;97876.25;6226991;28;20237;-70
2022/03/16 03:58:55;;;;;;;8.87;7.67;;;;;;;8.20;74.62;97868.38;6224354;28;20278;-70
2022/03/16 04:01:57;;;;;;;9.73;8.03;;;;;;;8.22;74.18;97879.63;6226332;28;20238;-70
2022/03/16 04:05:03;;;;;;;9.20;7.40;;;;;;;8.20;73.89;97878.88;6226361;28;20233;-70
2022/03/16 04:08:05;;;;;;;10.40;8.43;;;;;;;8.15;75.10;97879.22;6224794;28;20868;-70
2022/03/16 04:11:07;;;;;;;9.47;8.00;;;;;;;8.12;74.67;97892.56;6225822;28;20237;-70
2022/03/16 04:14:10;;;;;;;9.03;7.90;;;;;;;8.07;74.63;97887.63;6226712;28;20233;-70
2022/03/16 04:17:12;;;;;;;9.50;7.37;;;;;;;8.05;75.00;97893.91;6207437;28;20255;-70
2022/03/16 04:20:14;;;;;;;9.27;7.90;;;;;;;8.01;75.24;97895.91;6221390;28;20247;-69
2022/03/16 04:23:16;;;;;;;10.77;8.40;;;;;;;8.01;75.39;97903.78;6227034;28;20219;-70
2022/03/16 04:26:18;;;;;;;13.53;9.63;;;;;;;8.08;75.36;97923.47;6225154;28;20289;-70
2022/03/16 04:29:20;;;;;;;12.53;10.03;;;;;;;8.10;75.70;97918.94;6224597;28;20235;-69
2022/03/16 04:32:22;;;;;;;13.17;10.13;;;;;;;8.05;75.77;97930.72;6226361;28;20229;-69
2022/03/16 04:35:24;;;;;;;15.57;11.07;;;;;;;7.99;75.95;97920.59;6226288;28;20234;-70
2022/03/16 04:38:26;;;;;;;12.10;10.20;;;;;;;7.95;75.74;97934.88;6225804;28;20649;-70
2022/03/16 04:41:28;;;;;;;13.73;11.10;;;;;;;7.88;75.54;97941.50;6224734;28;20329;-69
2022/03/16 04:44:30;;;;;;;10.87;9.37;;;;;;;7.88;74.03;97931.84;6225552;28;20231;-69
2022/03/16 04:47:32;;;;;;;9.20;8.20;;;;;;;7.80;73.40;97957.72;6225733;28;20266;-69
2022/03/16 04:50:35;;;;;;;9.60;8.27;;;;;;;7.74;73.36;97968.66;6228871;28;20241;-70
2022/03/16 04:53:37;;;;;;;8.50;7.53;;;;;;;7.70;71.53;97954.00;6228918;28;20600;-70
2022/03/16 04:56:39;;;;;;;7.40;6.67;;;;;;;7.67;71.90;97970.00;6230016;28;20235;-71
2022/03/16 04:59:41;;;;;;;8.77;6.77;;;;;;;7.61;70.79;97983.50;6229659;28;20714;-70
2022/03/16 05:02:43;;;;;;;7.90;7.10;;;;;;;7.59;70.00;97961.72;6230620;28;20225;-70
2022/03/16 05:05:47;;;;;;;8.37;7.47;;;;;;;7.54;68.71;97975.19;6229690;28;20255;-71
2022/03/16 05:08:50;;;;;;;9.40;7.77;;;;;;;7.48;68.79;98004.47;6228707;28;20242;-74
2022/03/16 05:11:52;;;;;;;9.13;8.17;;;;;;;7.50;68.40;97983.34;6228854;28;20249;-74
2022/03/16 05:14:54;;;;;;;9.40;8.30;;;;;;;7.50;67.30;98014.84;6228837;28;20241;-74
2022/03/16 05:17:55;;;;;;;9.30;8.17;;;;;;;7.53;67.11;98009.41;6229645;28;20231;-74
2022/03/16 05:20:58;;;;;;;9.87;8.57;;;;;;;7.53;66.30;98009.41;6228282;28;20233;-74
2022/03/16 05:24:00;;;;;;;9.00;8.03;;;;;;;7.54;65.46;98018.97;6227864;28;20227;-72
2022/03/16 05:27:02;;;;;;;9.50;8.47;;;;;;;7.53;65.82;98027.78;6211225;28;20696;-72
2022/03/16 05:30:08;;;;;;;8.93;7.80;;;;;;;7.57;65.88;98027.53;6229482;28;20569;-72
2022/03/16 05:33:10;;;;;;;9.53;8.50;;;;;;;7.51;66.44;98034.91;6228220;28;20254;-73
2022/03/16 05:36:12;;;;;;;11.03;8.97;;;;;;;7.49;65.58;98031.53;6228705;28;20723;-73
2022/03/16 05:39:14;;;;;;;9.90;7.63;;;;;;;7.47;64.48;98049.19;6226744;28;20212;-73
2022/03/16 05:42:16;;;;;;;9.70;8.63;;;;;;;7.50;64.72;98026.19;6211281;28;20285;-74
2022/03/16 05:45:18;;;;;;;9.33;8.33;;;;;;;7.49;65.05;98040.25;6227960;28;20229;-72
2022/03/16 05:48:20;;;;;;;10.50;8.70;;;;;;;7.46;65.16;98050.97;6228256;28;20239;-73
2022/03/16 05:51:22;;;;;;;10.37;9.17;;;;;;;7.42;64.90;98049.47;6227338;28;20217;-73
2022/03/16 05:54:24;;;;;;;11.37;10.00;;;;;;;7.39;64.34;98075.91;6227450;28;20698;-72
2022/03/16 05:57:27;;;;;;;12.23;10.70;;;;;;;7.34;64.56;98076.19;6227934;28;20306;-73
2022/03/16 06:00:31;;;;;;;11.87;9.87;;;;;;;7.32;64.21;98091.19;6229029;28;20232;-73
2022/03/16 06:03:34;;;;;;;10.80;9.67;;;;;;;7.31;65.17;98094.75;6228687;28;20305;-72
2022/03/16 06:06:36;;;;;;;12.37;10.43;;;;;;;7.27;64.27;98101.13;6228141;28;20636;-72
2022/03/16 06:09:38;;;;;;;12.83;10.73;;;;;;;7.27;64.29;98097.66;6228783;28;20263;-72
2022/03/16 06:13:00;;;;;;;13.80;10.90;;;;;;;7.26;63.89;98088.09;6228384;28;20250;-73
2022/03/16 06:16:03;;;;;;;12.90;10.77;;;;;;;7.23;63.89;98109.28;6228414;28;20235;-71
2022/03/16 06:19:05;;;;;;;13.03;11.13;;;;;;;7.19;64.30;98123.50;6225474;28;20241;-72
2022/03/16 06:22:07;;;;;;;13.33;10.63;;;;;;;7.23;64.46;98128.50;6226586;28;20266;-72
2022/03/16 06:25:09;;;;;;;13.67;10.97;;;;;;;7.27;63.87;98124.78;6225595;28;20246;-72
2022/03/16 06:28:11;;;;;;;13.77;11.70;;;;;;;7.25;64.23;98129.25;6201928;28;20239;-72
2022/03/16 06:31:13;;;;;;;13.90;11.90;;;;;;;7.21;65.03;98135.63;6224513;28;20234;-74
2022/03/16 06:34:15;;;;;;;13.97;11.40;;;;;;;7.21;64.80;98140.88;6227496;28;20241;-72
2022/03/16 06:37:17;;;;;;;13.67;11.17;;;;;;;7.20;64.75;98149.66;6227112;28;20239;-72
2022/03/16 06:40:19;;;;;;;14.37;12.43;;;;;;;7.16;65.51;98153.44;6225626;28;20236;-72
2022/03/16 06:43:21;;;;;;;14.13;12.60;;;;;;;7.15;65.88;98154.38;6227480;28;20705;-72
2022/03/16 06:46:23;;;;;;;15.10;12.37;;;;;;;7.13;65.23;98171.97;6227510;28;20234;-72
2022/03/16 06:49:25;;;;;;;13.97;11.73;;;;;;;7.12;65.29;98170.28;6226894;28;20242;-72
2022/03/16 06:52:27;;;;;;;15.67;12.97;;;;;;;7.08;65.33;98174.03;6226099;28;20343;-72
2022/03/16 06:55:29;;;;;;;14.40;12.43;;;;;;;7.05;65.72;98184.69;6225566;28;20245;-72
2022/03/16 06:58:31;;;;;;;14.60;11.87;;;;;;;7.00;66.59;98176.25;6226659;28;20619;-72
2022/03/16 07:01:33;;;;;;;18.10;14.03;;;;;;;6.91;68.11;98187.25;6208942;28;20436;-72
2022/03/16 07:04:35;;;;;;;16.20;13.83;;;;;;;6.86;68.46;98205.91;6226758;28;20312;-72
2022/03/16 07:07:37;;;;;;;17.97;13.80;;;;;;;6.84;68.82;98201.69;6225143;28;20242;-72
2022/03/16 07:10:41;;;;;;;18.33;14.07;;;;;;;6.77;69.68;98200.34;6225217;28;20230;-72
2022/03/16 07:14:30;;;;;;;18.93;15.07;;;;;;;6.68;70.17;98216.59;6226185;28;21097;-73
2022/03/16 07:17:05;;;;;;;20.10;15.27;;;;;;;6.55;70.87;98232.16;6226594;28;20729;-71
2022/03/16 07:20:08;;;;;;;19.03;15.80;;;;;;;6.50;72.04;98229.78;6225684;28;20245;-72
2022/03/16 07:23:13;;;;;;;20.07;16.03;;;;;;;6.46;73.01;98230.03;6226734;28;20231;-72
2022/03/16 07:26:15;;;;;;;22.50;17.03;;;;;;;6.40;73.20;98254.81;6224561;28;20228;-72
2022/03/16 07:29:17;;;;;;;19.43;15.37;;;;;;;6.36;73.14;98248.06;6226825;28;20238;-70
2022/03/16 07:32:19;;;;;;;20.83;16.20;;;;;;;6.37;73.09;98254.16;6220095;28;20610;-71
2022/03/16 07:35:26;;;;;;;19.33;15.80;;;;;;;6.49;72.78;98245.63;6226131;28;20280;-70
2022/03/16 07:38:29;;;;;;;18.20;15.27;;;;;;;6.62;71.62;98262.34;6226034;28;20236;-71
2022/03/16 07:41:30;;;;;;;20.70;15.90;;;;;;;6.75;71.31;98265.16;6226163;28;20227;-70
2022/03/16 07:44:33;;;;;;;18.90;15.57;;;;;;;6.83;71.04;98262.94;6224916;28;20628;-71
2022/03/16 07:47:35;;;;;;;19.27;15.10;;;;;;;6.85;70.42;98271.56;6222243;28;20587;-69
2022/03/16 07:50:40;;;;;;;21.37;15.70;;;;;;;6.78;70.74;98275.47;6224803;28;20226;-70
2022/03/16 07:53:42;;;;;;;20.43;15.60;;;;;;;6.69;70.70;98276.81;6221052;28;20308;-72
2022/03/16 07:56:45;;;;;;;21.23;15.63;;;;;;;6.62;70.61;98292.03;6217584;28;20231;-70
2022/03/16 07:59:47;;;;;;;19.60;15.47;;;;;;;6.61;71.12;98276.38;6201781;28;20229;-72
2022/03/16 08:02:52;;;;;;;21.90;17.27;;;;;;;6.57;70.95;98277.50;6228233;28;20229;-78
2022/03/16 08:05:54;;;;;;;22.50;17.63;;;;;;;6.53;71.36;98289.94;6231828;28;20222;-76
2022/03/16 08:08:56;;;;;;;23.47;18.23;;;;;;;6.50;71.61;98286.63;6230304;28;20220;-74
2022/03/16 08:11:58;;;;;;;21.40;16.47;;;;;;;6.51;71.79;98309.28;6230195;28;20239;-73
2022/03/16 08:15:00;;;;;;;26.70;19.33;;;;;;;6.44;72.86;98293.03;6213943;28;20237;-75
2022/03/16 08:18:02;;;;;;;24.53;18.20;;;;;;;6.40;72.82;98302.00;6230576;28;20222;-77
2022/03/16 08:21:06;;;;;;;23.93;18.47;;;;;;;6.47;72.92;98315.63;6231926;28;20222;-77
2022/03/16 08:24:08;;;;;;;26.73;19.47;;;;;;;6.56;73.40;98321.25;6221440;28;20231;-77
2022/03/16 08:27:10;;;;;;;27.00;19.93;;;;;;;6.58;72.46;98321.16;6232439;28;20241;-75
2022/03/16 08:30:12;;;;;;;27.50;19.47;;;;;;;6.61;72.27;98321.81;6232237;28;20218;-76
2022/03/16 08:33:15;;;;;;;27.53;19.20;;;;;;;6.63;71.05;98314.72;6231986;28;20234;-78
2022/03/16 08:36:17;;;;;;;24.57;18.73;;;;;;;6.69;71.24;98331.88;6230174;28;20350;-76
2022/03/16 08:39:19;;;;;;;26.10;19.77;;;;;;;6.70;71.33;98325.72;6228408;28;20221;-75
2022/03/16 08:42:21;;;;;;;25.50;19.63;;;;;;;6.73;70.89;98328.19;6220009;28;20229;-77
2022/03/16 08:45:23;;;;;;;23.50;18.13;;;;;;;6.75;70.51;98334.19;6224875;28;20252;-78
2022/03/16 08:48:26;;;;;;;24.87;18.40;;;;;;;6.74;69.55;98323.78;6228769;28;20235;-77
2022/03/16 08:51:28;;;;;;;25.80;20.27;;;;;;;6.73;70.22;98327.34;6229348;28;20231;-78
2022/03/16 08:54:30;;;;;;;22.33;18.33;;;;;;;6.73;70.19;98327.34;6228453;28;20255;-78
2022/03/16 08:57:33;;;;;;;25.43;19.17;;;;;;;6.72;69.89;98341.38;6228561;28;20715;-77
2022/03/16 09:00:37;;;;;;;24.67;20.33;;;;;;;6.73;69.65;98343.06;6228518;28;20650;-78
2022/03/16 09:03:39;;;;;;;26.77;19.13;;;;;;;6.74;69.27;98339.53;6226929;28;20232;-75
2022/03/16 09:06:41;;;;;;;22.30;18.03;;;;;;;6.75;69.93;98354.34;6231051;28;20232;-76
2022/03/16 09:09:43;;;;;;;24.10;19.30;;;;;;;6.73;69.84;98349.16;6230313;28;20228;-77
2022/03/16 09:12:46;;;;;;;26.00;18.97;;;;;;;6.74;69.51;98343.00;6230522;28;20560;-77
2022/03/16 09:15:51;;;;;;;25.90;19.20;;;;;;;6.76;68.51;98350.78;6230075;28;20233;-75
2022/03/16 09:18:53;;;;;;;25.63;18.73;;;;;;;6.77;68.13;98348.09;6228677;28;20227;-77
2022/03/16 09:21:54;;;;;;;25.43;19.60;;;;;;;6.78;69.28;98341.91;6229491;28;20248;-76
2022/03/16 09:24:57;;;;;;;23.13;18.57;;;;;;;6.78;68.72;98343.69;6229605;28;20220;-79
2022/03/16 09:27:59;;;;;;;22.97;18.83;;;;;;;6.79;68.63;98348.81;6229294;28;20245;-75
2022/03/16 09:31:00;;;;;;;24.10;18.83;;;;;;;6.83;68.80;98350.38;6230145;28;20609;-75
2022/03/16 09:34:07;;;;;;;24.33;19.80;;;;;;;6.85;68.21;98355.53;6225006;28;20240;-74
2022/03/16 09:37:13;;;;;;;24.57;20.13;;;;;;;6.86;68.40;98365.94;6225592;28;20237;-76
2022/03/16 09:40:15;;;;;;;26.97;20.37;;;;;;;6.88;69.61;98365.88;6228056;28;20347;-70
2022/03/16 09:43:19;;;;;;;27.73;20.83;;;;;;;6.85;69.19;98377.38;6230053;28;20649;-70
2022/03/16 09:46:31;;;;;;;25.83;20.40;;;;;;;6.86;69.44;98365.09;6228716;28;20261;-71
2022/03/16 09:49:33;;;;;;;25.43;20.73;;;;;;;6.85;70.74;98384.38;6228979;28;20235;-70
2022/03/16 09:52:35;;;;;;;26.13;20.50;;;;;;;6.83;70.86;98376.59;6228346;28;20241;-69
2022/03/16 09:55:37;;;;;;;23.10;18.60;;;;;;;6.86;70.74;98388.72;6229071;28;20322;-70
2022/03/16 09:58:42;;;;;;;24.60;19.60;;;;;;;6.82;70.23;98381.91;6227754;28;20239;-70
2022/03/16 10:01:44;;;;;;;22.70;18.93;;;;;;;6.83;70.53;98386.25;6229239;28;20898;-70
2022/03/16 10:04:47;;;;;;;23.43;19.67;;;;;;;6.84;70.84;98388.78;6228986;28;20733;-70
2022/03/16 10:07:53;;;;;;;22.13;18.63;;;;;;;6.88;70.79;98385.09;6227516;28;20253;-72
2022/03/16 10:14:26;;;;;;;22.97;19.00;;;;;;;6.88;71.18;98403.44;6228141;28;20687;-70
2022/03/16 10:17:43;;;;;;;26.47;20.67;;;;;;;6.82;70.80;98406.38;6228788;28;20242;-69
2022/03/16 10:20:47;;;;;;;23.53;19.23;;;;;;;6.78;70.55;98388.28;6210953;28;20759;-69
2022/03/16 10:23:49;;;;;;;26.57;20.37;;;;;;;6.75;70.69;98412.03;6227528;28;20331;-70
2022/03/16 10:26:52;;;;;;;25.27;20.37;;;;;;;6.76;70.21;98424.22;6226474;28;20316;-69
2022/03/16 10:29:54;;;;;;;26.33;20.03;;;;;;;6.75;69.83;98431.25;6225590;28;20223;-71
2022/03/16 10:32:56;;;;;;;27.87;20.87;;;;;;;6.72;70.63;98425.31;6228581;28;20245;-70
2022/03/16 10:36:11;;;;;;;28.10;21.07;;;;;;;6.69;70.58;98435.97;6226950;28;20646;-70
2022/03/16 10:39:13;;;;;;;26.83;21.23;;;;;;;6.65;71.12;98437.91;6227900;28;20704;-70
2022/03/16 10:49:12;;;;;;;27.83;21.40;;;;;;;6.66;71.07;98445.69;6220879;28;20701;-69
2022/03/16 10:52:17;;;;;;;29.07;19.87;;;;;;;6.66;71.27;98445.69;6227173;28;20234;-72
2022/03/16 10:55:22;;;;;;;28.03;21.03;;;;;;;6.73;70.94;98448.00;6226161;28;20252;-70
2022/03/16 10:58:24;;;;;;;28.77;23.10;;;;;;;6.75;70.22;98444.38;6216599;28;20768;-69
2022/03/16 11:01:27;;;;;;;27.87;22.53;;;;;;;6.76;70.14;98451.31;6224702;28;20236;-70
2022/03/16 11:04:31;;;;;;;28.13;21.80;;;;;;;6.74;70.61;98450.53;6228723;28;20760;-70
2022/03/16 11:07:36;;;;;;;26.67;22.73;;;;;;;6.74;70.07;98442.66;6226936;28;20236;-69
2022/03/16 11:10:41;;;;;;;29.40;22.30;;;;;;;6.75;69.97;98439.13;6226523;28;20584;-70
2022/03/16 11:13:43;;;;;;;26.37;20.73;;;;;;;6.72;69.76;98451.53;6227849;28;20230;-72
2022/03/16 11:16:46;;;;;;;27.00;21.13;;;;;;;6.75;69.66;98444.38;6226509;28;20235;-70
2022/03/16 11:19:52;;;;;;;27.20;21.67;;;;;;;6.73;70.33;98455.84;6225301;28;20758;-70
2022/03/16 11:26:25;;;;;;;26.23;21.23;;;;;;;6.68;69.77;98460.50;6226285;28;20749;-70
2022/03/16 11:29:30;;;;;;;28.87;23.03;;;;;;;6.69;69.67;98454.34;6215098;28;20221;-72
2022/03/16 11:32:36;;;;;;;27.33;21.30;;;;;;;6.68;69.97;98464.00;6224029;28;20240;-71
2022/03/16 11:35:44;;;;;;;27.13;22.63;;;;;;;6.70;69.74;98461.25;6225024;28;20231;-69
2022/03/16 11:38:47;;;;;;;27.67;22.37;;;;;;;6.66;69.45;98476.31;6225899;28;20691;-69
2022/03/16 11:41:53;;;;;;;29.30;22.00;;;;;;;6.68;69.42;98476.25;6227933;28;20243;-70
2022/03/16 11:44:55;;;;;;;27.70;21.47;;;;;;;6.68;68.76;98479.72;6222457;28;20618;-70
2022/03/16 11:47:57;;;;;;;24.27;20.27;;;;;;;6.69;69.50;98480.56;6226106;28;20241;-73
2022/03/16 11:51:11;;;;;;;26.47;20.47;;;;;;;6.66;68.99;98485.03;6225647;28;20244;-70
2022/03/16 11:54:14;;;;;;;23.33;19.20;;;;;;;6.68;68.72;98484.97;6222843;28;20782;-70
2022/03/16 11:57:49;;;;;;;24.27;19.70;;;;;;;6.72;69.29;98489.13;6223806;28;20799;-70
2022/03/16 12:01:12;;;;;;;23.17;19.00;;;;;;;6.74;68.78;98492.50;6226357;28;20228;-70
2022/03/16 12:04:30;;;;;;;20.33;17.77;;;;;;;6.86;68.13;98493.66;6219926;28;20213;-70
2022/03/16 12:07:35;;;;;;;24.00;19.83;;;;;;;6.99;67.01;98489.44;6216693;28;20232;-70
2022/03/16 12:10:46;;;;;;;21.37;18.47;;;;;;;7.31;66.85;98496.44;6216396;28;20308;-69
2022/03/16 12:13:49;;;;;;;24.13;19.00;;;;;;;7.51;66.43;98491.88;6213425;28;20757;-72
2022/03/16 12:17:14;;;;;;;21.60;17.30;;;;;;;7.61;64.96;98490.44;6226187;28;20221;-69
2022/03/16 12:20:34;;;;;;;21.47;17.97;;;;;;;7.64;65.92;98491.13;6224480;28;20252;-71
2022/03/16 12:23:39;;;;;;;21.70;17.67;;;;;;;7.48;66.06;98486.81;6223690;28;20584;-70
2022/03/16 12:28:55;;;;;;;24.20;18.87;;;;;;;7.38;66.20;98492.56;6223894;28;20246;-69
2022/03/16 12:30:04;;;;;;;26.50;19.07;;;;;;;7.58;66.00;98483.59;6226373;28;20221;-72
2022/03/16 12:33:09;;;;;;;21.67;18.53;;;;;;;7.82;64.95;98491.03;6201471;28;20253;-71
2022/03/16 12:36:15;;;;;;;24.67;19.47;;;;;;;8.04;64.61;98488.88;6222735;28;20218;-69
2022/03/16 12:39:17;;;;;;;23.93;18.33;;;;;;;8.06;64.06;98501.03;6224968;28;20219;-71
2022/03/16 12:42:31;;;;;;;24.63;19.40;;;;;;;8.09;63.71;98498.19;6224857;28;20211;-72
2022/03/16 12:45:34;;;;;;;24.50;18.63;;;;;;;8.23;63.62;98491.31;6225983;28;20741;-69
2022/03/16 12:48:36;;;;;;;25.13;20.47;;;;;;;8.33;62.54;98495.13;6225243;28;20246;-69
2022/03/16 12:51:46;;;;;;;24.37;18.93;;;;;;;8.44;62.67;98485.69;6225456;28;20733;-69
2022/03/16 12:54:49;;;;;;;28.07;20.57;;;;;;;8.62;62.76;98483.72;6223874;28;20246;-72
2022/03/16 12:57:54;;;;;;;25.20;20.07;;;;;;;8.90;61.46;98477.66;6224413;28;20228;-71
2022/03/16 13:00:58;;;;;;;26.40;20.23;;;;;;;9.08;60.33;98475.72;6223291;28;20224;-71
2022/03/16 13:04:03;;;;;;;26.90;20.27;;;;;;;9.20;60.36;98475.78;6225388;28;20285;-72
2022/03/16 13:07:06;;;;;;;25.97;20.73;;;;;;;9.47;59.95;98467.97;6223830;28;20384;-70
2022/03/16 13:10:09;;;;;;;26.33;21.40;;;;;;;10.18;57.59;98482.75;6224264;28;20242;-72
2022/03/16 13:13:11;;;;;;;27.17;20.80;;;;;;;10.83;57.36;98480.09;6227550;28;20597;-71
2022/03/16 13:16:30;;;;;;;25.87;21.47;;;;;;;11.32;54.78;98475.72;6228102;28;20246;-69
2022/03/16 13:19:32;;;;;;;25.67;19.57;;;;;;;12.13;53.48;98476.03;6228640;28;20245;-70
2022/03/16 13:22:34;;;;;;;24.00;19.43;;;;;;;12.43;51.08;98480.00;6229136;28;20231;-70
2022/03/16 13:25:36;;;;;;;23.57;19.50;;;;;;;12.60;50.74;98481.38;6230577;28;20239;-71
2022/03/16 13:28:39;;;;;;;21.20;18.13;;;;;;;12.61;50.16;98480.41;6213005;28;20607;-71
2022/03/16 13:31:43;;;;;;;22.73;19.00;;;;;;;12.34;49.26;98488.63;6204370;28;20236;-70
2022/03/16 13:34:49;;;;;;;23.80;19.37;;;;;;;12.23;50.52;98484.13;6225914;28;20296;-71
2022/03/16 13:38:00;;;;;;;21.30;18.30;;;;;;;13.27;49.19;98482.38;6229526;28;20684;-71
2022/03/16 13:41:15;;;;;;;23.00;19.37;;;;;;;12.48;49.37;98488.41;6228365;28;20228;-70
2022/03/16 13:44:22;;;;;;;23.03;19.00;;;;;;;11.82;50.83;98489.81;6228876;28;20708;-70
2022/03/16 13:47:26;;;;;;;20.93;18.23;;;;;;;12.42;50.64;98492.38;6227245;28;20243;-69
2022/03/16 13:50:28;;;;;;;23.20;18.37;;;;;;;14.26;45.55;98492.94;6227098;28;20841;-71
2022/03/16 13:53:40;;;;;;;21.90;17.87;;;;;;;15.90;41.17;98494.75;6228720;28;20647;-70
2022/03/16 13:56:43;;;;;;;20.70;18.03;;;;;;;16.81;39.98;98486.41;6228101;28;20778;-73
2022/03/16 14:00:05;;;;;;;21.63;18.13;;;;;;;17.88;37.18;98497.59;6228390;28;20454;-69
2022/03/16 14:03:14;;;;;;;21.73;19.20;;;;;;;18.12;36.28;98499.72;6227637;28;20646;-72
2022/03/16 14:06:16;;;;;;;22.53;19.07;;;;;;;17.59;37.08;98509.22;6228315;28;20305;-72
2022/03/16 14:09:25;;;;;;;22.97;17.83;;;;;;;15.80;40.85;98502.72;6228489;28;20725;-74
2022/03/16 14:12:43;;;;;;;20.97;18.63;;;;;;;13.42;46.38;98533.34;6227895;28;20298;-73
2022/03/16 14:15:45;;;;;;;24.60;20.87;;;;;;;11.51;50.48;98535.22;6227522;28;20642;-73
2022/03/16 14:18:47;;;;;;;23.77;20.17;;;;;;;10.56;53.69;98543.53;6225807;28;20234;-73
2022/03/16 14:21:49;;;;;;;27.20;21.40;;;;;;;10.02;55.90;98543.50;6226469;28;20306;-73
2022/03/16 14:24:51;;;;;;;24.93;21.90;;;;;;;10.10;55.76;98543.84;6228200;28;20229;-73
2022/03/16 14:27:56;;;;;;;23.77;20.60;;;;;;;11.52;51.98;98529.81;6226549;28;20591;-72
2022/03/16 14:30:57;;;;;;;25.50;21.87;;;;;;;12.16;49.94;98534.03;6226512;28;20240;-72
2022/03/16 14:34:00;;;;;;;25.60;21.93;;;;;;;11.52;51.27;98523.69;6225312;28;20633;-73